Time;durP1;ratioP1;P1;durP2;ratioP2;P2;SDS_P1;SDS_P2;PMS_P1;PMS_P2;Temp;Humidity;BMP_temperature;BMP_pressure;BME280_temperature;BME280_humidity;BME280_pressure;Samples;Min_cycle;Max_cycle;Signal;HPM_P1;HPM_P2
2022/03/10 00:01:51;;;;;;;1.02;0.45;;;2.60;73.00;;;;;;5073218;28;20522;-82
2022/03/10 00:04:17;;;;;;;1.27;0.95;;;2.70;74.10;;;;;;5072440;28;20140;-82
2022/03/10 00:06:43;;;;;;;0.00;0.00;;;2.60;74.10;;;;;;5055674;28;20095;-82
2022/03/10 00:09:09;;;;;;;0.63;0.20;;;2.80;73.70;;;;;;5055972;28;20045;-82
2022/03/10 00:11:34;;;;;;;0.10;0.10;;;2.70;73.00;;;;;;5055607;28;20045;-83
2022/03/10 00:14:00;;;;;;;0.25;0.13;;;2.70;73.10;;;;;;5055627;28;20036;-83
2022/03/10 00:16:26;;;;;;;0.30;0.20;;;2.70;73.40;;;;;;5072451;28;20139;-83
2022/03/10 00:18:51;;;;;;;0.30;0.30;;;2.70;73.30;;;;;;5055864;28;20051;-83
2022/03/10 00:21:17;;;;;;;0.50;0.50;;;2.70;73.20;;;;;;5072125;28;20040;-82
2022/03/10 00:23:43;;;;;;;2.13;0.65;;;2.70;73.00;;;;;;5072168;28;20048;-82
2022/03/10 00:26:08;;;;;;;1.40;1.30;;;2.70;73.60;;;;;;5072511;28;20075;-83
2022/03/10 00:28:34;;;;;;;0.25;0.13;;;2.60;74.60;;;;;;5055999;28;20495;-83
2022/03/10 00:31:00;;;;;;;0.98;0.43;;;2.60;74.80;;;;;;5072362;28;20052;-83
2022/03/10 00:33:26;;;;;;;0.73;0.73;;;2.60;75.00;;;;;;5055451;28;20448;-83
2022/03/10 00:35:51;;;;;;;0.88;0.85;;;2.50;74.80;;;;;;5055939;28;20048;-82
2022/03/10 00:38:18;;;;;;;0.00;0.00;;;2.70;75.20;;;;;;5072238;28;20040;-83
2022/03/10 00:40:43;;;;;;;1.13;0.10;;;2.50;75.50;;;;;;5055700;28;20060;-82
2022/03/10 00:43:11;;;;;;;0.10;0.05;;;2.50;75.90;;;;;;5072451;28;20099;-82
2022/03/10 00:45:37;;;;;;;0.98;0.82;;;2.40;76.10;;;;;;5072886;28;20146;-83
2022/03/10 00:48:03;;;;;;;0.35;0.25;;;2.50;74.90;;;;;;5072286;28;20076;-83
2022/03/10 00:50:28;;;;;;;1.33;0.75;;;2.50;74.90;;;;;;5056121;28;20075;-83
2022/03/10 00:52:55;;;;;;;0.20;0.20;;;2.40;74.70;;;;;;5056629;28;20045;-83
2022/03/10 00:55:21;;;;;;;0.00;0.00;;;2.50;74.80;;;;;;5059862;28;20045;-83
2022/03/10 00:57:48;;;;;;;0.10;0.10;;;2.50;75.00;;;;;;5076003;28;20043;-83
2022/03/10 01:00:15;;;;;;;0.73;0.45;;;2.40;75.00;;;;;;5059368;28;20051;-83
2022/03/10 01:02:41;;;;;;;0.52;0.45;;;2.50;76.30;;;;;;5076735;28;20461;-83
2022/03/10 01:05:08;;;;;;;0.30;0.30;;;2.40;75.90;;;;;;5075991;28;20131;-83
2022/03/10 01:07:34;;;;;;;1.85;1.75;;;2.40;75.70;;;;;;5058551;28;20052;-82
2022/03/10 01:10:00;;;;;;;2.67;0.25;;;2.40;76.30;;;;;;5076066;28;20060;-83
2022/03/10 01:12:27;;;;;;;0.55;0.55;;;2.40;76.60;;;;;;5059477;28;20139;-83
2022/03/10 01:14:52;;;;;;;0.47;0.32;;;2.40;76.40;;;;;;5076081;28;20040;-83
2022/03/10 01:17:18;;;;;;;0.10;0.10;;;2.30;76.70;;;;;;5075896;28;20365;-83
2022/03/10 01:19:45;;;;;;;0.40;0.20;;;2.30;76.30;;;;;;5059793;28;20052;-83
2022/03/10 01:22:13;;;;;;;1.50;1.00;;;2.30;77.00;;;;;;5059023;28;20092;-83
2022/03/10 01:24:41;;;;;;;0.50;0.50;;;2.20;77.20;;;;;;5075768;28;20088;-83
2022/03/10 01:27:07;;;;;;;0.10;0.10;;;2.20;76.50;;;;;;5059040;28;20094;-83
2022/03/10 01:29:33;;;;;;;0.22;0.22;;;2.30;76.60;;;;;;5075297;28;20051;-82
2022/03/10 01:31:59;;;;;;;0.20;0.20;;;2.30;78.10;;;;;;5059160;28;20048;-83
2022/03/10 01:34:25;;;;;;;0.00;0.00;;;2.30;77.10;;;;;;5058904;28;20045;-83
2022/03/10 01:36:50;;;;;;;0.32;0.32;;;2.20;77.50;;;;;;5058792;28;20561;-83
2022/03/10 01:39:16;;;;;;;0.40;0.40;;;2.20;77.20;;;;;;5075235;28;20086;-83
2022/03/10 01:41:42;;;;;;;0.08;0.03;;;2.20;77.30;;;;;;5075378;28;20462;-83
2022/03/10 01:44:09;;;;;;;0.00;0.00;;;2.20;77.10;;;;;;5058636;28;20144;-83
2022/03/10 01:46:36;;;;;;;1.38;1.02;;;2.20;77.60;;;;;;5058451;28;20537;-83
2022/03/10 01:49:03;;;;;;;0.63;0.10;;;2.20;77.60;;;;;;5058469;28;20052;-83
2022/03/10 01:51:30;;;;;;;0.10;0.10;;;2.20;77.60;;;;;;5058512;28;20059;-83
2022/03/10 01:53:56;;;;;;;0.40;0.38;;;2.20;78.40;;;;;;5075228;28;20041;-83
2022/03/10 01:56:24;;;;;;;1.23;0.17;;;2.10;78.10;;;;;;5058409;28;20143;-82
2022/03/10 01:58:52;;;;;;;0.40;0.40;;;2.10;78.60;;;;;;5058148;28;20047;-83
2022/03/10 02:01:18;;;;;;;2.63;0.73;;;2.10;78.60;;;;;;5075159;28;20041;-83
2022/03/10 02:03:44;;;;;;;1.27;0.80;;;2.20;78.10;;;;;;5057724;28;20105;-83
2022/03/10 02:06:11;;;;;;;0.10;0.03;;;2.10;78.30;;;;;;5074428;28;20049;-82
2022/03/10 02:11:21;;;;;;;0.00;0.00;;;2.10;77.80;;;;;;5074869;28;20134;-83
2022/03/10 02:13:50;;;;;;;0.08;0.08;;;2.20;77.80;;;;;;5075321;28;20048;-83
2022/03/10 02:19:04;;;;;;;0.63;0.63;;;2.30;77.00;;;;;;5074593;28;20079;-83
2022/03/10 02:21:30;;;;;;;2.08;1.00;;;2.40;76.70;;;;;;5074619;28;20107;-82
2022/03/10 02:23:58;;;;;;;0.63;0.52;;;2.50;76.50;;;;;;5074603;28;20131;-83
2022/03/10 02:26:24;;;;;;;0.45;0.45;;;2.50;75.90;;;;;;5074768;28;20052;-83
2022/03/10 02:28:49;;;;;;;0.52;0.52;;;2.60;76.30;;;;;;5074317;28;20071;-82
2022/03/10 02:31:15;;;;;;;0.00;0.00;;;2.50;76.10;;;;;;5058069;28;20399;-83
2022/03/10 02:33:41;;;;;;;0.10;0.05;;;2.50;76.00;;;;;;5074622;28;20052;-83
2022/03/10 02:36:07;;;;;;;2.15;0.10;;;2.50;75.70;;;;;;5074281;28;20040;-83
2022/03/10 02:38:33;;;;;;;3.50;0.17;;;2.50;75.70;;;;;;5057705;28;20055;-82
2022/03/10 02:40:59;;;;;;;0.00;0.00;;;2.50;75.50;;;;;;5057484;28;20055;-83
2022/03/10 02:43:25;;;;;;;0.57;0.57;;;2.50;76.20;;;;;;5074081;28;20044;-83
2022/03/10 02:45:51;;;;;;;1.20;0.43;;;2.40;76.10;;;;;;5057559;28;20126;-83
2022/03/10 02:48:17;;;;;;;0.10;0.10;;;2.40;76.60;;;;;;5057569;28;20050;-83
2022/03/10 02:50:44;;;;;;;0.50;0.32;;;2.30;76.80;;;;;;5074013;28;20110;-83
2022/03/10 02:53:11;;;;;;;0.22;0.22;;;2.60;76.40;;;;;;5074257;28;20044;-83
2022/03/10 02:55:38;;;;;;;0.40;0.17;;;2.30;77.10;;;;;;5073955;28;20131;-83
2022/03/10 02:58:04;;;;;;;0.43;0.43;;;2.20;77.30;;;;;;5057098;28;20052;-83
2022/03/10 03:00:30;;;;;;;0.05;0.05;;;2.10;77.30;;;;;;5073792;28;20392;-83
2022/03/10 03:02:55;;;;;;;0.10;0.05;;;2.10;77.50;;;;;;5073766;28;20076;-83
2022/03/10 03:05:21;;;;;;;0.10;0.10;;;2.00;78.70;;;;;;5056829;28;20056;-83
2022/03/10 03:07:50;;;;;;;0.73;0.73;;;1.90;78.40;;;;;;5056391;28;20048;-83
2022/03/10 03:10:16;;;;;;;1.40;0.50;;;1.90;78.80;;;;;;5056957;28;20041;-83
2022/03/10 03:12:52;;;;;;;0.52;0.52;;;1.90;79.30;;;;;;5073543;28;20041;-83
2022/03/10 03:15:18;;;;;;;0.40;0.40;;;1.80;78.50;;;;;;5056567;28;20486;-83
2022/03/10 03:17:44;;;;;;;0.03;0.03;;;1.80;78.80;;;;;;5073356;28;20067;-83
2022/03/10 03:20:14;;;;;;;2.45;0.10;;;1.80;78.80;;;;;;5056760;28;20480;-83
2022/03/10 03:22:41;;;;;;;0.20;0.10;;;1.90;78.80;;;;;;5073368;28;20053;-83
2022/03/10 03:25:09;;;;;;;1.08;0.10;;;1.80;79.00;;;;;;5056524;28;20056;-83
2022/03/10 03:27:35;;;;;;;0.75;0.75;;;1.80;78.40;;;;;;5056494;28;20076;-83
2022/03/10 03:30:02;;;;;;;0.00;0.00;;;1.80;79.30;;;;;;5073258;28;20048;-83
2022/03/10 03:32:30;;;;;;;0.85;0.85;;;1.80;78.60;;;;;;5073189;28;20048;-83
2022/03/10 03:34:55;;;;;;;0.28;0.17;;;1.80;78.00;;;;;;5073206;28;20066;-83
2022/03/10 03:37:21;;;;;;;0.10;0.10;;;1.80;79.30;;;;;;5073562;28;20040;-83
2022/03/10 03:39:46;;;;;;;0.00;0.00;;;1.80;79.10;;;;;;5073303;28;20127;-83
2022/03/10 03:42:12;;;;;;;1.23;0.43;;;1.70;78.70;;;;;;5056572;28;20435;-83
2022/03/10 03:44:38;;;;;;;0.20;0.20;;;1.60;79.00;;;;;;5072844;28;20482;-83
2022/03/10 03:47:03;;;;;;;0.32;0.32;;;1.60;79.40;;;;;;5056200;28;20048;-83
2022/03/10 03:49:29;;;;;;;2.38;1.08;;;1.60;79.90;;;;;;5072053;28;20056;-83
2022/03/10 03:51:55;;;;;;;0.13;0.13;;;1.70;80.10;;;;;;5073679;28;20128;-83
2022/03/10 03:54:20;;;;;;;0.65;0.57;;;1.50;79.80;;;;;;5073181;28;20048;-83
2022/03/10 03:56:46;;;;;;;0.00;0.00;;;1.50;80.20;;;;;;5072806;28;20510;-83
2022/03/10 03:59:12;;;;;;;0.10;0.10;;;1.50;80.40;;;;;;5072575;28;20093;-83
2022/03/10 04:01:37;;;;;;;0.28;0.28;;;1.50;80.40;;;;;;5055776;28;20514;-83
2022/03/10 04:04:03;;;;;;;1.23;0.55;;;1.50;79.90;;;;;;5072958;28;20127;-83
2022/03/10 04:06:29;;;;;;;2.45;0.65;;;1.50;79.80;;;;;;5055224;28;20397;-83
2022/03/10 04:08:55;;;;;;;0.00;0.00;;;1.50;80.00;;;;;;5055446;28;20139;-83
2022/03/10 04:11:21;;;;;;;0.00;0.00;;;1.50;80.00;;;;;;5055026;28;20453;-83
2022/03/10 04:13:47;;;;;;;0.90;0.90;;;1.40;80.00;;;;;;5071770;28;20104;-83
2022/03/10 04:16:13;;;;;;;1.75;1.17;;;1.50;79.80;;;;;;5071771;28;20056;-82
2022/03/10 04:18:38;;;;;;;0.30;0.30;;;1.40;80.10;;;;;;5071360;28;20178;-83
2022/03/10 04:21:04;;;;;;;0.00;0.00;;;1.50;80.30;;;;;;5070869;28;20129;-83
2022/03/10 04:23:30;;;;;;;0.47;0.47;;;1.50;79.60;;;;;;5055366;28;20052;-83
2022/03/10 04:25:56;;;;;;;0.30;0.30;;;1.60;79.70;;;;;;5055025;28;20052;-83
2022/03/10 04:28:24;;;;;;;0.25;0.15;;;1.60;79.60;;;;;;5070311;28;20097;-83
2022/03/10 04:30:50;;;;;;;0.00;0.00;;;1.60;79.40;;;;;;5071604;28;20057;-83
2022/03/10 04:33:18;;;;;;;0.73;0.73;;;1.60;79.60;;;;;;5070780;28;20102;-83
2022/03/10 04:35:44;;;;;;;0.38;0.28;;;1.60;79.60;;;;;;5055213;28;20102;-83
2022/03/10 04:38:10;;;;;;;2.55;0.10;;;1.60;79.40;;;;;;5071232;28;20041;-83
2022/03/10 04:40:37;;;;;;;0.10;0.10;;;1.60;79.60;;;;;;5071596;28;20045;-83
2022/03/10 04:43:03;;;;;;;0.10;0.10;;;1.60;79.60;;;;;;5054471;28;20064;-83
2022/03/10 04:45:29;;;;;;;2.60;0.52;;;1.60;79.40;;;;;;5071460;28;20496;-83
2022/03/10 04:47:55;;;;;;;1.08;0.30;;;1.50;79.40;;;;;;5054636;28;20090;-83
2022/03/10 04:50:21;;;;;;;1.27;0.63;;;1.50;80.20;;;;;;5054811;28;20392;-83
2022/03/10 04:52:47;;;;;;;0.50;0.50;;;1.50;80.10;;;;;;5055030;28;20070;-83
2022/03/10 04:55:13;;;;;;;0.32;0.10;;;1.50;80.40;;;;;;5054664;28;20139;-83
2022/03/10 04:57:40;;;;;;;0.95;0.25;;;1.40;80.30;;;;;;5054380;28;20048;-83
2022/03/10 05:00:11;;;;;;;0.05;0.00;;;1.40;80.40;;;;;;5071934;28;20041;-83
2022/03/10 05:02:40;;;;;;;0.52;0.22;;;1.40;80.70;;;;;;5071307;28;20051;-83
2022/03/10 05:05:12;;;;;;;0.45;0.45;;;1.40;81.20;;;;;;5053988;28;20043;-83
2022/03/10 05:07:38;;;;;;;0.23;0.10;;;1.40;81.20;;;;;;5028756;28;1225906;-83
2022/03/10 05:10:04;;;;;;;1.77;0.45;;;1.30;81.20;;;;;;5055370;28;20774;-83
2022/03/10 05:12:30;;;;;;;3.47;0.95;;;1.40;81.20;;;;;;5055290;28;20099;-83
2022/03/10 05:14:55;;;;;;;0.20;0.20;;;1.30;81.10;;;;;;5055460;28;20102;-83
2022/03/10 05:17:23;;;;;;;0.52;0.47;;;1.30;82.20;;;;;;5055560;28;20056;-83
2022/03/10 05:19:52;;;;;;;0.00;0.00;;;1.30;81.70;;;;;;5055273;28;20518;-83
2022/03/10 05:22:18;;;;;;;1.30;0.60;;;1.30;81.00;;;;;;5055476;28;20143;-83
2022/03/10 05:24:44;;;;;;;0.00;0.00;;;1.30;82.20;;;;;;5055224;28;20052;-83
2022/03/10 05:27:09;;;;;;;0.47;0.47;;;1.30;81.90;;;;;;5071974;28;20384;-83
2022/03/10 05:29:40;;;;;;;1.38;1.27;;;1.30;81.30;;;;;;5071548;28;20070;-83
2022/03/10 05:32:08;;;;;;;0.30;0.30;;;1.20;81.80;;;;;;5055337;28;20076;-83
2022/03/10 05:34:34;;;;;;;0.90;0.68;;;1.20;81.90;;;;;;5071725;28;20051;-83
2022/03/10 05:37:02;;;;;;;0.08;0.08;;;1.20;82.10;;;;;;5071830;28;20480;-83
2022/03/10 05:39:28;;;;;;;2.55;0.90;;;1.10;82.20;;;;;;5056868;28;20481;-84
2022/03/10 05:41:54;;;;;;;0.20;0.10;;;1.10;82.30;;;;;;5057960;28;20063;-83
2022/03/10 05:44:20;;;;;;;0.22;0.22;;;1.10;83.60;;;;;;5059126;28;20045;-83
2022/03/10 05:46:45;;;;;;;0.10;0.10;;;1.00;84.10;;;;;;5075182;28;20041;-84
2022/03/10 05:49:11;;;;;;;0.10;0.10;;;1.00;83.70;;;;;;5074894;28;20074;-83
2022/03/10 05:51:37;;;;;;;0.57;0.30;;;1.00;84.10;;;;;;5075076;28;20037;-83
2022/03/10 05:54:03;;;;;;;0.05;0.05;;;1.00;84.30;;;;;;5058555;28;20048;-83
2022/03/10 05:56:29;;;;;;;1.58;0.95;;;0.90;83.90;;;;;;5057728;28;20484;-83
2022/03/10 05:58:55;;;;;;;0.90;0.40;;;0.90;84.20;;;;;;5075264;28;20051;-84
2022/03/10 06:01:23;;;;;;;0.00;0.00;;;0.90;84.40;;;;;;5058533;28;20053;-83
2022/03/10 06:03:49;;;;;;;1.08;0.47;;;0.90;85.00;;;;;;5057631;28;20071;-82
2022/03/10 06:06:15;;;;;;;0.08;0.08;;;0.80;85.80;;;;;;5071604;28;20037;-84
2022/03/10 06:08:42;;;;;;;0.95;0.20;;;0.80;87.00;;;;;;5074194;28;20059;-83
2022/03/10 06:11:07;;;;;;;1.45;0.55;;;0.70;86.40;;;;;;5057587;28;20077;-84
2022/03/10 06:13:34;;;;;;;1.33;0.32;;;0.70;87.50;;;;;;5060441;28;20053;-83
2022/03/10 06:16:00;;;;;;;1.08;0.70;;;0.70;87.20;;;;;;5053548;28;20059;-84
2022/03/10 06:18:29;;;;;;;0.90;0.43;;;0.70;87.50;;;;;;5054703;28;20045;-84
2022/03/10 06:20:55;;;;;;;0.30;0.30;;;0.70;88.20;;;;;;5057425;28;20052;-84
2022/03/10 06:23:23;;;;;;;0.93;0.82;;;0.70;87.60;;;;;;5054755;28;20049;-83
2022/03/10 06:25:49;;;;;;;1.20;0.25;;;0.70;88.40;;;;;;5038275;28;20045;-85
2022/03/10 06:28:15;;;;;;;0.10;0.10;;;0.80;87.70;;;;;;5055179;28;20037;-84
2022/03/10 06:30:41;;;;;;;1.70;0.50;;;0.80;88.10;;;;;;5054281;28;20049;-84
2022/03/10 06:33:06;;;;;;;0.88;0.63;;;0.80;88.80;;;;;;5054448;28;20045;-83
2022/03/10 06:35:32;;;;;;;0.80;0.80;;;0.90;88.60;;;;;;5037867;28;20107;-82
2022/03/10 06:37:58;;;;;;;1.88;0.90;;;0.90;89.50;;;;;;5037747;28;20041;-82
2022/03/10 06:40:23;;;;;;;0.10;0.00;;;1.00;88.50;;;;;;5054378;28;20476;-85
2022/03/10 06:42:49;;;;;;;0.13;0.13;;;1.20;90.00;;;;;;5054346;28;20088;-82
2022/03/10 06:45:17;;;;;;;1.08;0.70;;;1.30;89.00;;;;;;5054294;28;20477;-83
2022/03/10 06:47:43;;;;;;;0.43;0.43;;;1.50;89.20;;;;;;5053897;28;20048;-84
2022/03/10 06:50:09;;;;;;;0.52;0.43;;;1.50;88.50;;;;;;5053132;28;20045;-84
2022/03/10 06:52:37;;;;;;;1.85;0.93;;;1.60;88.40;;;;;;5053721;28;20501;-83
2022/03/10 06:55:04;;;;;;;5.70;1.17;;;1.70;88.10;;;;;;5037263;28;20052;-83
2022/03/10 06:57:29;;;;;;;0.00;0.00;;;1.70;87.70;;;;;;5037759;28;20527;-84
2022/03/10 06:59:55;;;;;;;1.20;0.70;;;1.80;87.80;;;;;;5037794;28;20053;-84
2022/03/10 07:02:20;;;;;;;0.20;0.20;;;1.90;88.10;;;;;;5037403;28;20060;-84
2022/03/10 07:04:46;;;;;;;1.17;0.52;;;2.10;88.30;;;;;;5037371;28;20621;-83
2022/03/10 07:07:12;;;;;;;0.28;0.28;;;2.30;87.70;;;;;;5037113;28;20542;-83
2022/03/10 07:09:37;;;;;;;1.10;0.77;;;2.50;86.90;;;;;;5037801;28;20041;-83
2022/03/10 07:12:03;;;;;;;0.60;0.55;;;2.70;85.20;;;;;;5054205;28;20152;-83
2022/03/10 07:14:29;;;;;;;0.80;0.32;;;3.20;85.00;;;;;;5053583;28;20048;-82
2022/03/10 07:16:55;;;;;;;0.00;0.00;;;4.00;85.90;;;;;;5053769;28;20055;-83
2022/03/10 07:19:20;;;;;;;0.10;0.10;;;4.80;83.20;;;;;;5053316;28;20051;-82
2022/03/10 07:21:46;;;;;;;2.35;0.80;;;5.50;79.40;;;;;;5037024;28;20068;-83
2022/03/10 07:24:12;;;;;;;2.42;0.10;;;6.40;80.40;;;;;;5036703;28;20053;-82
2022/03/10 07:26:38;;;;;;;0.00;0.00;;;7.20;75.90;;;;;;5053539;28;20045;-83
2022/03/10 07:29:04;;;;;;;0.00;0.00;;;7.80;71.90;;;;;;5036836;28;20504;-83
2022/03/10 07:31:32;;;;;;;0.10;0.10;;;8.30;71.70;;;;;;5053368;28;20106;-82
2022/03/10 07:33:58;;;;;;;1.23;0.63;;;8.40;68.70;;;;;;5053250;28;20110;-82
2022/03/10 07:36:24;;;;;;;5.85;1.42;;;8.10;66.70;;;;;;5036640;28;20060;-82
2022/03/10 07:38:49;;;;;;;0.20;0.20;;;7.80;66.50;;;;;;5036357;28;20057;-82
2022/03/10 07:41:15;;;;;;;0.30;0.03;;;7.70;68.50;;;;;;5037152;28;20111;-82
2022/03/10 07:43:41;;;;;;;1.85;0.25;;;7.60;67.60;;;;;;5053481;28;20045;-82
2022/03/10 07:46:06;;;;;;;0.40;0.40;;;7.60;67.20;;;;;;5053218;28;20503;-88
2022/03/10 07:48:33;;;;;;;1.08;0.73;;;7.60;68.20;;;;;;5036474;28;20041;-83
2022/03/10 07:50:59;;;;;;;0.68;0.38;;;7.50;67.20;;;;;;5053071;28;20045;-83
2022/03/10 07:53:25;;;;;;;0.25;0.25;;;7.30;67.70;;;;;;5036437;28;20481;-83
2022/03/10 07:55:54;;;;;;;2.35;0.55;;;7.20;67.00;;;;;;5052911;28;20033;-82
2022/03/10 07:58:23;;;;;;;0.15;0.13;;;7.40;68.20;;;;;;5053146;28;20060;-83
2022/03/10 08:00:50;;;;;;;0.50;0.50;;;7.30;67.20;;;;;;5052987;28;20045;-83
2022/03/10 08:03:15;;;;;;;0.52;0.22;;;7.20;67.30;;;;;;5036063;28;20136;-83
2022/03/10 08:05:43;;;;;;;0.20;0.20;;;7.20;68.00;;;;;;5036084;28;20143;-83
2022/03/10 08:08:09;;;;;;;0.25;0.22;;;7.20;68.50;;;;;;5035974;28;20053;-83
2022/03/10 08:10:34;;;;;;;0.45;0.20;;;7.20;67.50;;;;;;5052386;28;20392;-82
2022/03/10 08:13:00;;;;;;;1.00;0.40;;;7.20;68.60;;;;;;5052727;28;20056;-83
2022/03/10 08:15:26;;;;;;;0.65;0.30;;;7.30;67.50;;;;;;5035984;28;20068;-82
2022/03/10 08:17:52;;;;;;;1.95;0.20;;;7.50;67.80;;;;;;5035815;28;20041;-82
2022/03/10 08:20:18;;;;;;;1.33;0.30;;;7.70;67.70;;;;;;5036564;28;20037;-83
2022/03/10 08:22:43;;;;;;;1.15;0.55;;;7.90;67.50;;;;;;5052657;28;20127;-82
2022/03/10 08:25:09;;;;;;;0.10;0.10;;;8.10;66.70;;;;;;5052592;28;20048;-82
2022/03/10 08:27:35;;;;;;;0.88;0.88;;;8.60;65.80;;;;;;5052136;28;20052;-83
2022/03/10 08:30:01;;;;;;;1.90;0.73;;;8.60;64.60;;;;;;5052582;28;20098;-82
2022/03/10 08:32:27;;;;;;;1.33;1.23;;;8.90;65.10;;;;;;5052258;28;20500;-82
2022/03/10 08:34:52;;;;;;;0.00;0.00;;;9.40;64.60;;;;;;5035639;28;20052;-83
2022/03/10 08:37:18;;;;;;;0.55;0.45;;;9.60;64.00;;;;;;5036039;28;20080;-82
2022/03/10 08:39:44;;;;;;;0.75;0.13;;;9.70;63.00;;;;;;5035492;28;20554;-82
2022/03/10 08:42:10;;;;;;;1.13;0.65;;;9.80;63.80;;;;;;5052403;28;20087;-82
2022/03/10 08:44:36;;;;;;;3.15;0.75;;;9.70;63.30;;;;;;5052462;28;20049;-82
2022/03/10 08:47:02;;;;;;;2.92;1.88;;;9.60;63.00;;;;;;5052289;28;20049;-82
2022/03/10 08:49:28;;;;;;;0.40;0.20;;;9.80;63.20;;;;;;5052539;28;20045;-82
2022/03/10 08:51:55;;;;;;;0.90;0.55;;;9.90;64.20;;;;;;5035900;28;20048;-82
2022/03/10 08:54:24;;;;;;;0.85;0.40;;;9.90;63.60;;;;;;5052103;28;20405;-83
2022/03/10 08:56:50;;;;;;;0.85;0.68;;;9.60;63.10;;;;;;5052369;28;20132;-82
2022/03/10 08:59:16;;;;;;;0.30;0.00;;;9.80;63.70;;;;;;5035426;28;20481;-82
2022/03/10 09:01:41;;;;;;;0.63;0.20;;;10.10;64.60;;;;;;5051992;28;20051;-82
2022/03/10 09:04:07;;;;;;;0.28;0.28;;;10.30;63.20;;;;;;5052699;28;20041;-83
2022/03/10 09:06:33;;;;;;;0.70;0.65;;;10.40;62.90;;;;;;5051970;28;20107;-82
2022/03/10 09:08:59;;;;;;;1.52;0.10;;;10.70;62.00;;;;;;5035597;28;20049;-82
2022/03/10 09:11:24;;;;;;;0.35;0.35;;;10.70;62.00;;;;;;5035385;28;20477;-83
2022/03/10 09:13:50;;;;;;;0.13;0.10;;;10.70;61.70;;;;;;5053303;28;20550;-82
2022/03/10 09:16:18;;;;;;;0.28;0.28;;;10.90;62.00;;;;;;5055984;28;20037;-83
2022/03/10 09:18:45;;;;;;;0.77;0.75;;;11.10;62.10;;;;;;5038915;28;20048;-82
2022/03/10 09:21:11;;;;;;;0.98;0.75;;;11.10;61.30;;;;;;5055858;28;20136;-82
2022/03/10 09:23:37;;;;;;;0.20;0.20;;;11.50;61.30;;;;;;5055873;28;20397;-82
2022/03/10 09:26:03;;;;;;;0.73;0.60;;;11.40;60.50;;;;;;5055939;28;20048;-82
2022/03/10 09:28:28;;;;;;;0.90;0.90;;;11.40;61.10;;;;;;5055767;28;20387;-82
2022/03/10 09:30:54;;;;;;;1.85;1.35;;;11.70;60.10;;;;;;5039000;28;20550;-82
2022/03/10 09:33:23;;;;;;;0.65;0.65;;;12.00;60.10;;;;;;5055730;28;20138;-83
2022/03/10 09:35:49;;;;;;;1.95;0.82;;;12.20;58.70;;;;;;5055723;28;20400;-83
2022/03/10 09:38:16;;;;;;;1.35;0.65;;;12.40;58.20;;;;;;5038909;28;20041;-83
2022/03/10 09:40:41;;;;;;;0.95;0.15;;;12.70;58.60;;;;;;5055361;28;20476;-82
2022/03/10 09:43:08;;;;;;;0.57;0.20;;;12.80;58.00;;;;;;5055436;28;20047;-82
2022/03/10 09:45:37;;;;;;;0.00;0.00;;;12.90;57.90;;;;;;5055711;28;20049;-83
2022/03/10 09:48:03;;;;;;;2.42;2.33;;;12.90;56.90;;;;;;5038740;28;20092;-83
2022/03/10 09:50:29;;;;;;;0.20;0.20;;;13.20;57.60;;;;;;5039203;28;20045;-83
2022/03/10 09:52:55;;;;;;;0.20;0.20;;;13.40;57.00;;;;;;5038779;28;20057;-83
2022/03/10 09:55:21;;;;;;;0.25;0.25;;;13.30;56.60;;;;;;5038379;28;20052;-82
2022/03/10 09:57:48;;;;;;;0.17;0.17;;;13.50;56.50;;;;;;5055108;28;20049;-82
2022/03/10 10:00:16;;;;;;;0.55;0.55;;;13.50;55.90;;;;;;5055049;28;20123;-82
2022/03/10 10:02:44;;;;;;;0.20;0.20;;;13.40;55.60;;;;;;5038606;28;20056;-83
2022/03/10 10:05:19;;;;;;;1.02;0.35;;;13.30;55.90;;;;;;5054765;28;20064;-82
2022/03/10 10:08:02;;;;;;;0.32;0.00;;;13.80;56.50;;;;;;5054749;28;20091;-82
2022/03/10 10:10:29;;;;;;;1.08;0.57;;;14.10;53.30;;;;;;5055348;28;20200;-82
2022/03/10 10:12:55;;;;;;;0.35;0.35;;;14.20;52.20;;;;;;5038743;28;20366;-82
2022/03/10 10:15:21;;;;;;;0.50;0.43;;;14.20;51.00;;;;;;5055564;28;20131;-82
2022/03/10 10:17:56;;;;;;;0.32;0.32;;;14.40;52.40;;;;;;5038704;28;20378;-82
2022/03/10 10:20:22;;;;;;;0.40;0.30;;;14.10;50.40;;;;;;5038763;28;20092;-82
2022/03/10 10:22:51;;;;;;;2.95;1.30;;;14.10;50.10;;;;;;5054977;28;20098;-83
2022/03/10 10:25:21;;;;;;;3.65;0.70;;;14.00;49.80;;;;;;5054759;28;20052;-82
2022/03/10 10:27:47;;;;;;;1.05;0.77;;;14.00;49.80;;;;;;5037998;28;20063;-83
2022/03/10 10:30:13;;;;;;;0.47;0.47;;;14.10;50.60;;;;;;5055148;28;20053;-82
2022/03/10 10:32:42;;;;;;;2.05;1.15;;;14.20;49.20;;;;;;5038186;28;20370;-82
2022/03/10 10:35:10;;;;;;;1.35;0.25;;;14.30;48.80;;;;;;5037911;28;20060;-82
2022/03/10 10:37:42;;;;;;;7.53;1.45;;;14.10;49.60;;;;;;5055084;28;20049;-82
2022/03/10 10:40:09;;;;;;;0.05;0.05;;;14.10;49.60;;;;;;5038456;28;20048;-82
2022/03/10 10:42:37;;;;;;;0.30;0.20;;;14.40;51.40;;;;;;5054518;28;20041;-82
2022/03/10 10:45:36;;;;;;;1.17;0.88;;;15.00;50.50;;;;;;5053676;28;20489;-82
2022/03/10 10:48:06;;;;;;;1.95;1.00;;;14.90;48.90;;;;;;5054267;28;20492;-82
2022/03/10 10:50:34;;;;;;;0.93;0.52;;;14.90;48.20;;;;;;5038428;28;20420;-82
2022/03/10 10:53:00;;;;;;;0.10;0.10;;;15.20;48.90;;;;;;5037659;28;20055;-82
2022/03/10 10:55:36;;;;;;;0.75;0.47;;;15.30;47.90;;;;;;5054129;28;20048;-82
2022/03/10 10:58:11;;;;;;;0.93;0.85;;;15.60;48.20;;;;;;5037302;28;20041;-82
2022/03/10 11:00:44;;;;;;;0.73;0.73;;;15.80;47.60;;;;;;5038006;28;20084;-82
2022/03/10 11:03:20;;;;;;;0.40;0.15;;;15.60;46.90;;;;;;5054156;28;20049;-82
2022/03/10 11:05:48;;;;;;;3.03;0.85;;;15.80;47.20;;;;;;5037165;28;20469;-82
2022/03/10 11:08:17;;;;;;;0.93;0.93;;;15.90;46.70;;;;;;5036517;28;20146;-82
2022/03/10 11:10:43;;;;;;;0.35;0.35;;;15.90;47.40;;;;;;5053658;28;20164;-82
2022/03/10 11:13:09;;;;;;;0.38;0.38;;;16.00;46.20;;;;;;5053731;28;20144;-82
2022/03/10 11:15:36;;;;;;;0.47;0.47;;;16.00;45.90;;;;;;5036869;28;20051;-81
2022/03/10 11:18:03;;;;;;;4.60;0.90;;;16.00;45.20;;;;;;5053535;28;20041;-81
2022/03/10 11:20:31;;;;;;;0.30;0.22;;;15.80;45.10;;;;;;5037023;28;20457;-82
2022/03/10 11:23:45;;;;;;;0.63;0.63;;;15.90;45.50;;;;;;5036945;28;20085;-81
2022/03/10 11:26:21;;;;;;;0.13;0.13;;;15.80;44.20;;;;;;5015926;28;20154;-81
2022/03/10 11:28:49;;;;;;;2.40;0.68;;;15.80;44.80;;;;;;5016342;28;20045;-81
2022/03/10 11:31:16;;;;;;;0.60;0.60;;;15.90;44.20;;;;;;5016000;28;20050;-81
2022/03/10 11:33:43;;;;;;;4.18;0.88;;;15.90;43.90;;;;;;4999550;28;20389;-81
2022/03/10 11:36:26;;;;;;;1.05;0.55;;;16.00;44.20;;;;;;5015294;28;20041;-81
2022/03/10 11:39:10;;;;;;;0.80;0.75;;;16.20;44.90;;;;;;5015590;28;20509;-81
2022/03/10 11:41:46;;;;;;;1.45;0.90;;;16.40;43.40;;;;;;5015871;28;20584;-81
2022/03/10 11:44:12;;;;;;;1.85;1.52;;;16.20;42.50;;;;;;5015742;28;20065;-81
2022/03/10 11:46:52;;;;;;;0.10;0.10;;;16.00;41.40;;;;;;5015589;28;20048;-81
2022/03/10 11:49:21;;;;;;;0.75;0.75;;;16.20;43.90;;;;;;5015991;28;20057;-81
2022/03/10 11:51:57;;;;;;;1.17;0.40;;;16.30;42.60;;;;;;5015596;28;20038;-81
2022/03/10 11:54:27;;;;;;;1.55;0.60;;;16.40;43.30;;;;;;5015675;28;20050;-80
2022/03/10 11:56:55;;;;;;;0.70;0.70;;;16.20;42.50;;;;;;5015466;28;20057;-81
2022/03/10 11:59:27;;;;;;;0.52;0.52;;;16.30;42.80;;;;;;5015165;28;20044;-80
2022/03/10 12:01:55;;;;;;;0.70;0.70;;;16.50;43.90;;;;;;5016879;28;20045;-80
2022/03/10 12:04:21;;;;;;;3.08;1.85;;;16.60;44.00;;;;;;5052573;28;20485;-80
2022/03/10 12:07:15;;;;;;;1.48;1.13;;;16.70;43.30;;;;;;5052562;28;20063;-80
2022/03/10 12:09:43;;;;;;;2.17;1.00;;;16.80;44.00;;;;;;5036209;28;20052;-80
2022/03/10 12:12:19;;;;;;;0.90;0.80;;;16.70;42.80;;;;;;5036734;28;20053;-80
2022/03/10 12:14:46;;;;;;;2.03;0.93;;;16.50;42.90;;;;;;5052811;28;20136;-80
2022/03/10 12:17:43;;;;;;;1.13;1.05;;;16.50;43.40;;;;;;5036055;28;20365;-80
2022/03/10 12:20:16;;;;;;;1.25;1.20;;;16.80;45.10;;;;;;5052795;28;20136;-80
2022/03/10 12:23:03;;;;;;;0.30;0.30;;;17.10;43.80;;;;;;5052601;28;20110;-80
2022/03/10 12:25:30;;;;;;;1.70;0.95;;;17.10;43.60;;;;;;5036029;28;20056;-80
2022/03/10 12:27:57;;;;;;;1.42;0.95;;;16.90;43.40;;;;;;5052382;28;20059;-80
2022/03/10 12:30:25;;;;;;;1.05;1.02;;;17.10;43.20;;;;;;5036251;28;20059;-81
2022/03/10 12:32:53;;;;;;;2.28;1.27;;;17.10;43.30;;;;;;5052390;28;20032;-80
2022/03/10 12:35:20;;;;;;;0.32;0.32;;;17.40;43.90;;;;;;5052533;28;20041;-80
2022/03/10 12:37:48;;;;;;;1.48;1.38;;;17.70;43.20;;;;;;5035856;28;20047;-80
2022/03/10 12:40:23;;;;;;;2.22;1.38;;;17.90;42.30;;;;;;5052298;28;20059;-80
2022/03/10 12:42:48;;;;;;;3.67;1.63;;;18.20;43.20;;;;;;5053063;28;20103;-80
2022/03/10 12:45:19;;;;;;;0.38;0.38;;;18.20;42.60;;;;;;5052273;28;20489;-79
2022/03/10 12:47:53;;;;;;;0.70;0.70;;;18.20;42.20;;;;;;5035744;28;20055;-80
2022/03/10 12:50:19;;;;;;;1.77;1.00;;;18.20;42.50;;;;;;5056342;28;20041;-80
2022/03/10 12:52:45;;;;;;;5.68;2.50;;;18.00;42.20;;;;;;5039824;28;20099;-80
2022/03/10 12:55:11;;;;;;;0.98;0.98;;;17.90;42.10;;;;;;5056596;28;20084;-79
2022/03/10 12:57:37;;;;;;;1.67;1.30;;;17.90;41.70;;;;;;5056778;28;20052;-79
2022/03/10 13:00:23;;;;;;;0.73;0.45;;;17.80;42.30;;;;;;5056107;28;20087;-79